createdAt,value
2018-04-27T00:00:43.236Z,3.90
2018-04-27T00:03:10.755Z,3.90
2018-04-27T00:05:38.325Z,3.90
2018-04-27T00:08:05.786Z,3.90
2018-04-27T00:10:33.274Z,4.00
2018-04-27T00:13:00.763Z,4.00
2018-04-27T00:15:28.976Z,4.00
2018-04-27T00:17:56.472Z,3.90
2018-04-27T00:20:23.987Z,4.00
2018-04-27T00:22:51.468Z,4.00
2018-04-27T00:25:18.953Z,4.00
2018-04-27T00:27:46.432Z,4.00
2018-04-27T00:30:14.714Z,4.00
2018-04-27T00:32:42.977Z,4.00
2018-04-27T00:35:10.437Z,4.00
2018-04-27T00:37:38.689Z,3.90
2018-04-27T00:40:06.185Z,3.90
2018-04-27T00:42:34.413Z,3.90
2018-04-27T00:45:01.878Z,3.90
2018-04-27T00:47:29.397Z,3.90
2018-04-27T00:49:56.861Z,3.90
2018-04-27T00:52:24.348Z,3.90
2018-04-27T00:54:51.885Z,3.90
2018-04-27T00:57:19.356Z,3.90
2018-04-27T00:59:46.816Z,4.00
2018-04-27T01:02:14.305Z,3.90
2018-04-27T01:04:41.830Z,4.00
2018-04-27T01:07:09.326Z,4.00
2018-04-27T01:09:36.802Z,4.00
2018-04-27T01:12:05.053Z,4.00
2018-04-27T01:14:32.529Z,3.90
2018-04-27T01:16:59.977Z,3.90
2018-04-27T01:19:27.481Z,3.90
2018-04-27T01:21:54.964Z,3.90
2018-04-27T01:24:22.453Z,3.90
2018-04-27T01:26:49.910Z,3.90
2018-04-27T01:29:17.415Z,3.80
2018-04-27T01:31:44.880Z,3.80
2018-04-27T01:34:12.345Z,3.70
2018-04-27T01:36:39.844Z,3.60
2018-04-27T01:39:07.301Z,3.60
2018-04-27T01:41:34.796Z,3.60
2018-04-27T01:44:02.376Z,3.60
2018-04-27T01:46:29.856Z,3.50
2018-04-27T01:48:57.307Z,3.50
2018-04-27T01:51:24.793Z,3.40
2018-04-27T01:53:52.265Z,3.50
2018-04-27T01:56:19.753Z,3.50
2018-04-27T01:58:47.218Z,3.60
2018-04-27T02:01:14.707Z,3.50
2018-04-27T02:03:42.158Z,3.50
2018-04-27T02:06:09.668Z,3.50
2018-04-27T02:08:37.909Z,3.50
2018-04-27T02:11:05.364Z,3.50
2018-04-27T02:13:32.856Z,3.50
2018-04-27T02:16:01.093Z,3.40
2018-04-27T02:18:28.569Z,3.40
2018-04-27T02:20:56.023Z,3.40
2018-04-27T02:23:23.513Z,3.30
2018-04-27T02:25:51.727Z,3.20
2018-04-27T02:28:19.221Z,3.20
2018-04-27T02:30:46.691Z,3.20
2018-04-27T02:33:14.191Z,3.10
2018-04-27T02:35:41.653Z,3.10
2018-04-27T02:38:09.148Z,3.10
2018-04-27T02:40:36.601Z,3.10
2018-04-27T02:43:04.070Z,3.10
2018-04-27T02:45:31.561Z,3.10
2018-04-27T02:47:59.784Z,3.00
2018-04-27T02:50:27.268Z,3.00
2018-04-27T02:52:54.729Z,3.00
2018-04-27T02:55:22.189Z,2.90
2018-04-27T02:57:49.692Z,2.90
2018-04-27T03:00:17.159Z,2.90
2018-04-27T03:02:44.658Z,2.90
2018-04-27T03:05:12.140Z,2.80
2018-04-27T03:07:40.362Z,2.80
2018-04-27T03:10:07.859Z,2.70
2018-04-27T03:12:35.340Z,2.80
2018-04-27T03:15:03.589Z,2.70
2018-04-27T03:17:31.071Z,2.70
2018-04-27T03:19:59.291Z,2.80
2018-04-27T03:22:26.777Z,2.80
2018-04-27T03:24:54.245Z,2.70
2018-04-27T03:27:21.748Z,2.70
2018-04-27T03:29:49.208Z,2.70
2018-04-27T03:32:16.693Z,2.70
2018-04-27T03:34:44.149Z,2.70
2018-04-27T03:37:11.665Z,2.70
2018-04-27T03:39:39.136Z,2.70
2018-04-27T03:42:06.593Z,2.70
2018-04-27T03:44:34.082Z,2.70
2018-04-27T03:47:01.526Z,2.70
2018-04-27T03:49:29.018Z,2.80
2018-04-27T03:51:56.507Z,2.80
2018-04-27T03:54:23.986Z,2.80
2018-04-27T03:56:51.437Z,2.80
2018-04-27T03:59:30.985Z,2.80
2018-04-27T04:02:10.362Z,2.80
2018-04-27T04:04:49.804Z,2.80
2018-04-27T04:07:17.272Z,2.70
2018-04-27T04:09:44.761Z,2.60
2018-04-27T04:12:12.989Z,2.50
2018-04-27T04:14:40.489Z,2.40
2018-04-27T04:17:08.718Z,2.40
2018-04-27T04:19:36.206Z,2.30
2018-04-27T04:22:05.190Z,2.20
2018-04-27T04:24:32.649Z,2.20
2018-04-27T04:27:00.140Z,2.30
2018-04-27T04:29:28.376Z,2.20
2018-04-27T04:31:55.877Z,2.20
2018-04-27T04:34:23.354Z,2.20
2018-04-27T04:36:50.858Z,2.30
2018-04-27T04:39:18.317Z,2.20
2018-04-27T04:41:45.796Z,2.30
2018-04-27T04:44:14.055Z,2.30
2018-04-27T04:46:41.546Z,2.30
2018-04-27T04:49:09.765Z,2.40
2018-04-27T04:51:37.248Z,2.30
2018-04-27T04:54:04.730Z,2.40
2018-04-27T04:56:32.985Z,2.70
2018-04-27T04:59:01.216Z,2.70
2018-04-27T05:01:28.724Z,2.70
2018-04-27T05:03:56.188Z,2.70
2018-04-27T05:06:23.694Z,2.80
2018-04-27T05:08:51.240Z,2.80
2018-04-27T05:11:18.741Z,2.80
2018-04-27T05:13:46.201Z,2.90
2018-04-27T05:16:13.677Z,2.90
2018-04-27T05:18:58.849Z,3.00
2018-04-27T05:21:26.317Z,3.00
2018-04-27T05:23:53.799Z,3.10
2018-04-27T05:26:21.246Z,3.20
2018-04-27T05:28:49.516Z,3.30
2018-04-27T05:31:25.237Z,3.40
2018-04-27T05:33:52.748Z,3.30
2018-04-27T05:36:20.220Z,3.50
2018-04-27T05:38:47.680Z,3.60
2018-04-27T05:41:15.167Z,3.60
2018-04-27T05:43:42.657Z,3.70
2018-04-27T05:46:10.913Z,3.80
2018-04-27T05:48:38.395Z,3.80
2018-04-27T05:51:06.652Z,4.10
2018-04-27T05:53:34.168Z,4.10
2018-04-27T05:56:01.621Z,4.30
2018-04-27T05:58:29.111Z,4.30
2018-04-27T06:00:56.581Z,4.40
2018-04-27T06:03:24.056Z,4.50
2018-04-27T06:05:52.292Z,4.70
2018-04-27T06:08:19.824Z,4.70
2018-04-27T06:10:47.281Z,4.80
2018-04-27T06:13:14.750Z,5.20
2018-04-27T06:15:42.240Z,5.20
2018-04-27T06:18:09.696Z,5.30
2018-04-27T06:20:37.184Z,5.40
2018-04-27T06:23:05.430Z,5.90
2018-04-27T06:25:32.913Z,5.90
2018-04-27T06:28:00.385Z,6.20
2018-04-27T06:30:28.647Z,6.70
2018-04-27T06:32:56.101Z,6.70
2018-04-27T06:35:23.603Z,7.00
2018-04-27T06:37:51.052Z,7.20
2018-04-27T06:40:18.540Z,7.70
2018-04-27T06:42:46.009Z,7.80
2018-04-27T06:45:13.607Z,7.90
2018-04-27T06:47:41.084Z,7.90
2018-04-27T06:50:08.545Z,8.10
2018-04-27T06:52:36.033Z,8.80
2018-04-27T06:55:03.533Z,9.20
2018-04-27T06:57:31.828Z,10.00
2018-04-27T06:59:59.308Z,9.90
2018-04-27T07:02:26.841Z,10.20
2018-04-27T07:04:55.172Z,10.60
2018-04-27T07:07:22.668Z,10.60
2018-04-27T07:09:50.910Z,11.20
2018-04-27T07:12:18.410Z,11.20
2018-04-27T07:14:46.677Z,11.60
2018-04-27T07:17:14.190Z,11.60
2018-04-27T07:19:41.673Z,11.80
2018-04-27T07:22:09.148Z,11.90
2018-04-27T07:24:36.633Z,12.30
2018-04-27T07:27:04.138Z,12.50
2018-04-27T07:29:31.646Z,12.70
2018-04-27T07:31:59.898Z,12.80
2018-04-27T07:34:27.390Z,12.80
2018-04-27T07:36:55.676Z,13.00
2018-04-27T07:39:23.253Z,13.00
2018-04-27T07:41:50.732Z,13.20
2018-04-27T07:44:18.213Z,13.00
2018-04-27T07:46:45.697Z,13.10
2018-04-27T07:49:13.966Z,13.30
2018-04-27T07:51:42.240Z,13.20
2018-04-27T07:54:09.756Z,13.20
2018-04-27T07:56:37.232Z,13.40
2018-04-27T07:59:04.761Z,13.50
2018-04-27T08:01:32.276Z,13.60
2018-04-27T08:04:00.541Z,13.90
2018-04-27T08:06:28.014Z,13.90
2018-04-27T08:08:56.342Z,14.30
2018-04-27T08:11:24.638Z,14.30
2018-04-27T08:13:52.812Z,14.10
2018-04-27T08:16:20.328Z,14.10
2018-04-27T08:18:47.852Z,14.30
2018-04-27T08:21:16.112Z,14.90
2018-04-27T08:23:44.374Z,14.80
2018-04-27T08:26:11.840Z,14.80
2018-04-27T08:28:39.359Z,14.80
2018-04-27T08:31:06.849Z,14.80
2018-04-27T08:33:34.349Z,14.90
2018-04-27T08:36:02.576Z,15.20
2018-04-27T08:38:30.088Z,15.20
2018-04-27T08:40:58.347Z,15.30
2018-04-27T08:43:25.822Z,15.30
2018-04-27T08:45:54.059Z,15.70
2018-04-27T08:48:21.577Z,15.70
2018-04-27T08:50:49.073Z,16.00
2018-04-27T08:53:16.560Z,15.70
2018-04-27T08:55:44.078Z,15.70
2018-04-27T08:58:11.569Z,15.90
2018-04-27T09:00:40.553Z,16.20
2018-04-27T09:03:08.054Z,16.20
2018-04-27T09:05:36.276Z,16.20
2018-04-27T09:08:03.772Z,16.20
2018-04-27T09:10:31.250Z,16.50
2018-04-27T09:12:59.481Z,16.60
2018-04-27T09:15:26.969Z,16.60
2018-04-27T09:17:54.433Z,16.90
2018-04-27T09:20:21.907Z,17.20
2018-04-27T09:22:49.411Z,17.30
2018-04-27T09:25:18.124Z,17.50
2018-04-27T09:27:45.627Z,17.70
2018-04-27T09:30:13.110Z,17.70
2018-04-27T09:32:40.569Z,17.60
2018-04-27T09:35:08.076Z,18.00
2018-04-27T09:37:36.308Z,18.40
2018-04-27T09:40:03.789Z,18.40
2018-04-27T09:42:31.248Z,18.60
2018-04-27T09:44:58.724Z,18.30
2018-04-27T09:47:26.993Z,18.20
2018-04-27T09:49:54.465Z,18.20
2018-04-27T09:52:22.713Z,18.30
2018-04-27T09:54:50.176Z,18.30
2018-04-27T09:57:17.669Z,18.20
2018-04-27T09:59:45.893Z,18.20
2018-04-27T10:02:13.388Z,18.20
2018-04-27T10:04:41.626Z,18.60
2018-04-27T10:07:09.116Z,18.60
2018-04-27T10:09:38.089Z,18.90
2018-04-27T10:12:05.581Z,18.90
2018-04-27T10:14:33.845Z,19.20
2018-04-27T10:17:02.100Z,19.30
2018-04-27T10:19:31.518Z,19.20
2018-04-27T10:21:59.030Z,19.30
2018-04-27T10:24:26.521Z,19.30
2018-04-27T10:26:54.017Z,19.20
2018-04-27T10:29:22.281Z,19.10
2018-04-27T10:31:49.747Z,19.10
2018-04-27T10:34:18.027Z,19.60
2018-04-27T10:36:46.277Z,19.90
2018-04-27T10:39:13.773Z,19.90
2018-04-27T10:41:42.011Z,19.60
2018-04-27T10:44:09.515Z,19.60
2018-04-27T10:46:37.081Z,19.50
2018-04-27T10:49:04.569Z,19.40
2018-04-27T10:51:32.041Z,19.70
2018-04-27T10:53:59.542Z,20.00
2018-04-27T10:56:27.031Z,20.30
2018-04-27T10:58:54.498Z,20.20
2018-04-27T11:01:22.002Z,20.30
2018-04-27T11:03:49.465Z,20.40
2018-04-27T11:06:17.725Z,20.40
2018-04-27T11:08:45.179Z,20.40
2018-04-27T11:11:12.660Z,20.40
2018-04-27T11:13:40.920Z,20.30
2018-04-27T11:16:08.404Z,20.30
2018-04-27T11:18:36.636Z,20.30
2018-04-27T11:21:04.112Z,20.30
2018-04-27T11:23:32.392Z,20.70
2018-04-27T11:26:00.670Z,20.60
2018-04-27T11:28:28.120Z,20.60
2018-04-27T11:30:55.577Z,20.30
2018-04-27T11:33:24.618Z,20.70
2018-04-27T11:35:52.096Z,20.70
2018-04-27T11:38:19.593Z,20.90
2018-04-27T11:40:47.819Z,21.20
2018-04-27T11:43:15.313Z,21.20
2018-04-27T11:45:42.800Z,21.40
2018-04-27T11:48:11.048Z,21.50
2018-04-27T11:50:38.545Z,21.50
2018-04-27T11:53:06.782Z,22.20
2018-04-27T11:55:34.337Z,22.20
2018-04-27T11:58:01.805Z,21.80
2018-04-27T12:00:29.340Z,21.70
2018-04-27T12:02:56.805Z,21.80
2018-04-27T12:05:24.297Z,22.00
2018-04-27T12:07:52.537Z,22.10
2018-04-27T12:10:20.044Z,22.10
2018-04-27T12:12:48.297Z,22.60
2018-04-27T12:15:15.790Z,22.60
2018-04-27T12:17:44.040Z,22.30
2018-04-27T12:20:11.543Z,22.30
2018-04-27T12:22:39.023Z,22.20
2018-04-27T12:25:06.539Z,22.10
2018-04-27T12:27:34.801Z,22.70
2018-04-27T12:30:02.297Z,22.70
2018-04-27T12:32:29.807Z,22.60
2018-04-27T12:34:57.275Z,22.60
2018-04-27T12:37:25.560Z,22.30
2018-04-27T12:39:53.794Z,22.10
2018-04-27T12:42:21.402Z,22.10
2018-04-27T12:44:49.639Z,22.50
2018-04-27T12:47:17.154Z,22.50
2018-04-27T12:49:44.631Z,22.60
2018-04-27T12:52:12.290Z,22.90
2018-04-27T12:54:39.672Z,22.80
2018-04-27T12:57:08.275Z,22.90
2018-04-27T12:59:35.773Z,22.50
2018-04-27T13:02:03.280Z,22.40
2018-04-27T13:04:30.788Z,22.70
2018-04-27T13:06:59.017Z,22.90
2018-04-27T13:09:26.513Z,22.90
2018-04-27T13:11:54.004Z,22.80
2018-04-27T13:14:21.517Z,22.80
2018-04-27T13:16:48.977Z,22.60
2018-04-27T13:19:17.252Z,22.80
2018-04-27T13:21:45.500Z,22.60
2018-04-27T13:24:13.000Z,22.60
2018-04-27T13:26:41.344Z,22.90
2018-04-27T13:29:09.650Z,23.20
2018-04-27T13:31:37.877Z,23.30
2018-04-27T13:34:05.378Z,23.30
2018-04-27T13:36:33.625Z,23.40
2018-04-27T13:39:01.117Z,23.40
2018-04-27T13:41:29.348Z,23.80
2018-04-27T13:43:56.872Z,23.70
2018-04-27T13:46:24.346Z,23.50
2018-04-27T13:48:51.829Z,23.70
2018-04-27T13:51:19.293Z,23.80
2018-04-27T13:53:46.809Z,23.80
2018-04-27T13:56:15.111Z,23.40
2018-04-27T13:58:42.573Z,23.40
2018-04-27T14:01:10.081Z,23.60
2018-04-27T14:03:38.331Z,23.10
2018-04-27T14:06:05.866Z,23.10
2018-04-27T14:08:33.338Z,23.30
2018-04-27T14:11:00.854Z,23.40
2018-04-27T14:13:28.363Z,23.20
2018-04-27T14:15:55.882Z,23.10
2018-04-27T14:18:23.356Z,22.70
2018-04-27T14:20:50.882Z,23.10
2018-04-27T14:23:19.125Z,22.90
2018-04-27T14:25:46.614Z,22.90
2018-04-27T14:28:14.870Z,22.90
2018-04-27T14:30:42.336Z,22.80
2018-04-27T14:33:09.814Z,22.70
2018-04-27T14:35:37.282Z,22.90
2018-04-27T14:38:04.780Z,22.80
2018-04-27T14:40:32.273Z,22.60
2018-04-27T14:43:00.558Z,22.10
2018-04-27T14:45:28.812Z,21.80
2018-04-27T14:47:56.323Z,21.80
2018-04-27T14:50:23.837Z,21.90
2018-04-27T14:52:51.326Z,22.00
2018-04-27T14:55:18.798Z,22.20
2018-04-27T14:57:46.316Z,22.00
2018-04-27T15:00:13.794Z,22.20
2018-04-27T15:02:41.306Z,22.30
2018-04-27T15:05:08.773Z,22.30
2018-04-27T15:07:36.279Z,22.20
2018-04-27T15:10:03.785Z,21.80
2018-04-27T15:12:31.276Z,21.80
2018-04-27T15:15:00.188Z,21.90
2018-04-27T15:17:28.414Z,21.60
2018-04-27T15:19:55.922Z,21.60
2018-04-27T15:22:23.419Z,21.60
2018-04-27T15:24:50.876Z,21.40
2018-04-27T15:27:19.023Z,21.40
2018-04-27T15:29:46.512Z,21.40
2018-04-27T15:32:14.048Z,21.30
2018-04-27T15:34:41.510Z,21.20
2018-04-27T15:37:09.001Z,21.00
2018-04-27T15:39:36.482Z,20.90
2018-04-27T15:42:04.752Z,20.70
2018-04-27T15:44:32.218Z,20.70
2018-04-27T15:47:00.476Z,20.80
2018-04-27T15:49:27.960Z,20.80
2018-04-27T15:51:56.236Z,20.60
2018-04-27T15:54:24.512Z,20.50
2018-04-27T15:56:52.812Z,20.50
2018-04-27T15:59:20.297Z,20.50
2018-04-27T16:01:47.809Z,20.50
2018-04-27T16:04:15.331Z,20.50
2018-04-27T16:06:42.821Z,20.50
2018-04-27T16:09:11.082Z,20.40
2018-04-27T16:11:38.569Z,20.30
2018-04-27T16:14:06.824Z,20.30
2018-04-27T16:16:35.192Z,20.20
2018-04-27T16:19:04.191Z,20.20
2018-04-27T16:21:31.690Z,20.20
2018-04-27T16:23:59.837Z,20.20
2018-04-27T16:26:29.630Z,20.10
2018-04-27T16:28:57.092Z,20.10
2018-04-27T16:31:25.351Z,20.10
2018-04-27T16:33:52.856Z,20.00
2018-04-27T16:36:21.087Z,19.90
2018-04-27T16:38:48.584Z,19.90
2018-04-27T16:41:16.880Z,19.70
2018-04-27T16:43:44.347Z,19.70
2018-04-27T16:46:11.846Z,19.70
2018-04-27T16:48:39.348Z,19.70
2018-04-27T16:51:07.616Z,19.60
2018-04-27T16:53:35.922Z,19.50
2018-04-27T16:56:03.326Z,19.50
2018-04-27T16:58:31.571Z,19.40
2018-04-27T17:00:59.085Z,19.30
2018-04-27T17:03:27.309Z,19.20
2018-04-27T17:05:54.805Z,19.20
2018-04-27T17:08:22.277Z,19.20
2018-04-27T17:10:50.576Z,19.20
2018-04-27T17:13:18.833Z,19.20
2018-04-27T17:15:47.101Z,19.10
2018-04-27T17:18:15.334Z,19.10
2018-04-27T17:20:43.304Z,19.10
2018-04-27T17:23:10.784Z,19.00
2018-04-27T17:25:38.253Z,19.00
2018-04-27T17:28:05.825Z,18.90
2018-04-27T17:30:33.302Z,18.90
2018-04-27T17:33:01.570Z,18.80
2018-04-27T17:35:29.797Z,18.70
2018-04-27T17:37:57.309Z,18.70
2018-04-27T17:40:25.611Z,18.40
2018-04-27T17:42:53.036Z,18.40
2018-04-27T17:45:21.309Z,18.00
2018-04-27T17:47:49.609Z,17.80
2018-04-27T17:50:17.143Z,17.80
2018-04-27T17:52:45.419Z,17.60
2018-04-27T17:55:12.873Z,17.60
2018-04-27T17:57:40.373Z,17.50
2018-04-27T18:00:07.840Z,17.30
2018-04-27T18:02:35.359Z,17.20
2018-04-27T18:05:03.596Z,16.80
2018-04-27T18:07:31.183Z,16.80
2018-04-27T18:09:58.621Z,16.60
2018-04-27T18:12:26.113Z,16.50
2018-04-27T18:14:54.361Z,16.30
2018-04-27T18:17:21.889Z,16.30
2018-04-27T18:19:49.374Z,16.10
2018-04-27T18:22:16.845Z,16.00
2018-04-27T18:24:44.360Z,15.70
2018-04-27T18:27:12.345Z,15.70
2018-04-27T18:29:39.872Z,15.40
2018-04-27T18:32:08.136Z,15.20
2018-04-27T18:34:36.410Z,15.10
2018-04-27T18:37:04.673Z,15.00
2018-04-27T18:39:32.129Z,15.00
2018-04-27T18:41:59.634Z,14.80
2018-04-27T18:44:27.175Z,14.80
2018-04-27T18:46:54.617Z,14.70
2018-04-27T18:49:22.869Z,14.30
2018-04-27T18:51:50.408Z,14.30
2018-04-27T18:54:17.908Z,14.20
2018-04-27T18:56:45.426Z,14.20
2018-04-27T18:59:12.888Z,14.00
2018-04-27T19:01:40.360Z,13.90
2018-04-27T19:04:07.832Z,13.90
2018-04-27T19:06:35.373Z,13.70
2018-04-27T19:09:02.842Z,13.60
2018-04-27T19:11:30.369Z,13.40
2018-04-27T19:13:57.824Z,13.40
2018-04-27T19:16:25.297Z,13.40
2018-04-27T19:18:57.585Z,13.30
2018-04-27T19:21:25.073Z,13.10
2018-04-27T19:23:53.344Z,12.90
2018-04-27T19:26:20.840Z,12.90
2018-04-27T19:28:48.339Z,12.90
2018-04-27T19:31:15.811Z,12.80
2018-04-27T19:33:43.302Z,12.80
2018-04-27T19:36:11.580Z,12.70
2018-04-27T19:38:39.103Z,12.70
2018-04-27T19:41:06.593Z,12.60
2018-04-27T19:43:34.093Z,12.70
2018-04-27T19:46:01.577Z,12.60
2018-04-27T19:48:30.574Z,12.60
2018-04-27T19:50:58.050Z,12.60
2018-04-27T19:53:26.316Z,12.50
2018-04-27T19:55:54.554Z,12.40
2018-04-27T19:58:22.069Z,12.40
2018-04-27T20:00:50.373Z,12.20
2018-04-27T20:03:17.842Z,12.20
2018-04-27T20:05:48.250Z,12.00
2018-04-27T20:08:15.752Z,12.00
2018-04-27T20:10:44.146Z,12.00
2018-04-27T20:13:21.651Z,11.80
2018-04-27T20:15:54.741Z,11.60
2018-04-27T20:18:22.247Z,11.50
2018-04-27T20:20:50.633Z,11.50
2018-04-27T20:23:19.002Z,11.50
2018-04-27T20:25:47.221Z,11.40
2018-04-27T20:28:14.701Z,11.30
2018-04-27T20:30:42.957Z,11.20
2018-04-27T20:33:11.260Z,11.10
2018-04-27T20:35:39.513Z,11.00
2018-04-27T20:38:15.528Z,11.00
2018-04-27T20:40:43.018Z,10.90
2018-04-27T20:43:12.285Z,10.80
2018-04-27T20:45:39.782Z,10.80
2018-04-27T20:48:13.172Z,10.70
2018-04-27T20:50:40.662Z,10.60
2018-04-27T20:53:08.899Z,10.40
2018-04-27T20:55:36.396Z,10.40
2018-04-27T20:58:04.657Z,10.20
2018-04-27T21:00:32.180Z,10.20
2018-04-27T21:02:59.756Z,10.10
2018-04-27T21:05:27.288Z,10.10
2018-04-27T21:07:54.790Z,10.00
2018-04-27T21:10:22.259Z,9.90
2018-04-27T21:12:50.719Z,9.90
2018-04-27T21:15:18.164Z,9.90
2018-04-27T21:17:45.657Z,9.70
2018-04-27T21:20:15.521Z,9.70
2018-04-27T21:22:43.041Z,9.60
2018-04-27T21:25:12.085Z,9.50
2018-04-27T21:27:47.098Z,9.40
2018-04-27T21:30:14.644Z,9.40
2018-04-27T21:32:42.038Z,9.40
2018-04-27T21:35:09.529Z,9.40
2018-04-27T21:37:37.010Z,9.30
2018-04-27T21:40:05.261Z,9.30
2018-04-27T21:42:32.743Z,9.20
2018-04-27T21:45:00.984Z,9.00
2018-04-27T21:47:40.216Z,9.00
2018-04-27T21:50:09.578Z,8.90
2018-04-27T21:52:43.701Z,9.00
2018-04-27T21:55:11.180Z,8.90
2018-04-27T21:57:45.219Z,8.90
2018-04-27T22:00:12.738Z,8.80
2018-04-27T22:02:43.006Z,8.80
2018-04-27T22:05:30.914Z,8.80
2018-04-27T22:07:58.402Z,8.80
2018-04-27T22:10:25.900Z,8.70
2018-04-27T22:12:53.364Z,8.70
2018-04-27T22:15:20.860Z,8.70
2018-04-27T22:17:49.261Z,8.60
2018-04-27T22:23:16.624Z,8.50
2018-04-27T22:25:44.118Z,8.50
2018-04-27T22:28:12.493Z,8.50
2018-04-27T22:30:42.435Z,8.50
2018-04-27T22:33:31.397Z,8.40
2018-04-27T22:36:14.839Z,8.40
2018-04-27T22:38:53.136Z,8.40
2018-04-27T22:41:20.624Z,8.30
2018-04-27T22:43:49.037Z,8.20
2018-04-27T22:46:20.175Z,8.20
2018-04-27T22:49:00.148Z,8.20
2018-04-27T22:51:38.002Z,8.10
2018-04-27T22:54:21.099Z,8.10
2018-04-27T22:56:52.009Z,8.00
2018-04-27T22:59:22.625Z,8.00
2018-04-27T23:01:51.081Z,8.00
2018-04-27T23:04:18.544Z,8.00
2018-04-27T23:06:46.032Z,8.10
2018-04-27T23:09:14.277Z,8.00
2018-04-27T23:11:41.855Z,8.00
2018-04-27T23:14:10.080Z,8.00
2018-04-27T23:16:37.560Z,8.00
2018-04-27T23:19:05.068Z,7.90
2018-04-27T23:24:29.940Z,7.90
2018-04-27T23:26:57.413Z,7.80
2018-04-27T23:29:24.917Z,7.70
2018-04-27T23:31:52.402Z,7.70
2018-04-27T23:34:34.776Z,7.70
2018-04-27T23:37:02.251Z,7.70
2018-04-27T23:39:29.741Z,7.60
2018-04-27T23:41:57.191Z,7.60
2018-04-27T23:44:24.660Z,7.60
2018-04-27T23:46:52.149Z,7.60
2018-04-27T23:49:21.459Z,7.60
2018-04-27T23:51:49.718Z,7.60
2018-04-27T23:54:17.190Z,7.60
2018-04-27T23:56:46.263Z,7.60
2018-04-27T23:59:14.530Z,7.60
